Time,TemperatureF,DewpointF,PressureIn,WindDirection,WindDirectionDegrees,WindSpeedMPH,WindSpeedGustMPH,Humidity,HourlyPrecipIn,Conditions,Clouds,dailyrainin,SoftwareType,DateUTC
2013-03-17 00:00:00,65.6,55.2,30.15,South,174,1.0,1.0,69,0.00,,,0.00,Wunderground v.1.15,2013-03-17 04:00:00,
2013-03-17 00:10:00,65.2,55.2,30.15,WSW,244,1.0,1.0,70,0.00,,,0.00,Wunderground v.1.15,2013-03-17 04:10:00,
2013-03-17 00:20:00,64.6,55.0,30.15,WSW,257,1.0,1.0,71,0.00,,,0.00,Wunderground v.1.15,2013-03-17 04:20:00,
2013-03-17 00:30:00,63.9,54.7,30.14,SW,233,0.0,0.0,72,0.00,,,0.00,Wunderground v.1.15,2013-03-17 04:30:00,
2013-03-17 00:40:00,63.3,54.9,30.14,SW,230,0.0,0.0,74,0.00,,,0.00,Wunderground v.1.15,2013-03-17 04:40:00,
2013-03-17 00:50:00,62.8,54.4,30.14,WNW,283,0.0,0.0,74,0.00,,,0.00,Wunderground v.1.15,2013-03-17 04:50:00,
2013-03-17 01:00:00,62.0,54.0,30.14,West,278,0.0,0.0,75,0.00,,,0.00,Wunderground v.1.15,2013-03-17 05:00:00,
2013-03-17 01:10:00,61.3,54.0,30.14,West,278,0.0,0.0,77,0.00,,,0.00,Wunderground v.1.15,2013-03-17 05:10:00,
2013-03-17 01:20:00,60.9,54.0,30.13,West,278,0.0,0.0,78,0.00,,,0.00,Wunderground v.1.15,2013-03-17 05:20:00,
2013-03-17 01:30:00,61.1,54.5,30.13,West,278,0.0,0.0,79,0.00,,,0.00,Wunderground v.1.15,2013-03-17 05:30:00,
2013-03-17 01:40:00,60.9,54.3,30.13,West,278,0.0,0.0,79,0.00,,,0.00,Wunderground v.1.15,2013-03-17 05:40:00,
2013-03-17 01:50:00,60.7,54.5,30.13,West,278,0.0,0.0,80,0.00,,,0.00,Wunderground v.1.15,2013-03-17 05:50:00,
2013-03-17 02:00:00,60.3,53.8,30.12,West,278,0.0,0.0,79,0.00,,,0.00,Wunderground v.1.15,2013-03-17 06:00:00,
2013-03-17 02:10:00,59.8,53.6,30.12,West,278,0.0,0.0,80,0.00,,,0.00,Wunderground v.1.15,2013-03-17 06:10:00,
2013-03-17 02:20:00,59.8,54.0,30.12,West,278,0.0,0.0,81,0.00,,,0.00,Wunderground v.1.15,2013-03-17 06:20:00,
2013-03-17 02:30:00,59.7,54.2,30.12,West,278,0.0,0.0,82,0.00,,,0.00,Wunderground v.1.15,2013-03-17 06:30:00,
2013-03-17 02:40:00,59.6,54.1,30.11,West,278,0.0,0.0,82,0.00,,,0.00,Wunderground v.1.15,2013-03-17 06:40:00,
2013-03-17 02:50:00,59.8,54.6,30.11,West,278,0.0,0.0,83,0.00,,,0.00,Wunderground v.1.15,2013-03-17 06:50:00,
2013-03-17 03:00:00,60.0,54.8,30.11,West,278,0.0,0.0,83,0.00,,,0.00,Wunderground v.1.15,2013-03-17 07:00:00,
2013-03-17 03:10:00,60.3,55.1,30.11,West,278,0.0,0.0,83,0.00,,,0.00,Wunderground v.1.15,2013-03-17 07:10:00,
2013-03-17 03:20:00,60.3,55.1,30.10,West,278,0.0,0.0,83,0.00,,,0.00,Wunderground v.1.15,2013-03-17 07:20:00,
2013-03-17 03:30:00,60.5,55.6,30.10,West,278,0.0,0.0,84,0.00,,,0.00,Wunderground v.1.15,2013-03-17 07:30:00,
2013-03-17 03:40:00,60.6,55.4,30.10,West,278,0.0,0.0,83,0.00,,,0.00,Wunderground v.1.15,2013-03-17 07:40:00,
2013-03-17 03:50:00,60.7,55.8,30.10,WNW,294,0.0,0.0,84,0.00,,,0.00,Wunderground v.1.15,2013-03-17 07:50:00,
2013-03-17 04:00:00,61.1,55.9,30.11,West,277,0.0,0.0,83,0.00,,,0.00,Wunderground v.1.15,2013-03-17 08:00:00,
2013-03-17 04:10:00,61.2,56.0,30.10,West,278,0.0,0.0,83,0.00,,,0.00,Wunderground v.1.15,2013-03-17 08:10:00,
2013-03-17 04:20:00,61.5,56.3,30.10,West,278,0.0,0.0,83,0.00,,,0.00,Wunderground v.1.15,2013-03-17 08:20:00,
2013-03-17 04:30:00,61.6,56.4,30.10,West,280,0.0,0.0,83,0.00,,,0.00,Wunderground v.1.15,2013-03-17 08:30:00,
2013-03-17 04:40:00,61.6,56.4,30.10,West,280,0.0,0.0,83,0.00,,,0.00,Wunderground v.1.15,2013-03-17 08:40:00,
2013-03-17 04:50:00,61.8,56.6,30.10,West,280,0.0,0.0,83,0.00,,,0.00,Wunderground v.1.15,2013-03-17 08:50:00,
2013-03-17 05:00:00,62.0,56.8,30.10,West,280,0.0,0.0,83,0.00,,,0.00,Wunderground v.1.15,2013-03-17 09:00:00,
2013-03-17 05:10:00,61.9,56.7,30.10,West,277,0.0,0.0,83,0.00,,,0.00,Wunderground v.1.15,2013-03-17 09:10:00,
2013-03-17 05:20:00,62.0,56.8,30.10,West,278,0.0,0.0,83,0.00,,,0.00,Wunderground v.1.15,2013-03-17 09:20:00,
2013-03-17 05:30:00,62.3,57.1,30.10,WNW,290,0.0,0.0,83,0.00,,,0.00,Wunderground v.1.15,2013-03-17 09:30:00,
2013-03-17 05:40:00,62.6,57.0,30.10,WNW,293,0.0,0.0,82,0.00,,,0.00,Wunderground v.1.15,2013-03-17 09:40:00,
2013-03-17 05:50:00,62.6,57.0,30.11,NNE,15,0.0,0.0,82,0.00,,,0.00,Wunderground v.1.15,2013-03-17 09:50:00,
2013-03-17 06:00:00,62.9,57.0,30.11,NNE,30,0.0,0.0,81,0.00,,,0.00,Wunderground v.1.15,2013-03-17 10:00:00,
2013-03-17 06:10:00,63.0,57.4,30.11,North,352,0.0,0.0,82,0.00,,,0.00,Wunderground v.1.15,2013-03-17 10:10:00,
2013-03-17 06:20:00,62.9,57.3,30.11,North,350,0.0,0.0,82,0.00,,,0.00,Wunderground v.1.15,2013-03-17 10:20:00,
2013-03-17 06:30:00,62.7,57.1,30.11,North,351,0.0,0.0,82,0.00,,,0.00,Wunderground v.1.15,2013-03-17 10:30:00,
2013-03-17 06:40:00,62.6,57.0,30.11,North,352,0.0,0.0,82,0.00,,,0.00,Wunderground v.1.15,2013-03-17 10:40:00,
2013-03-17 06:50:00,62.6,57.4,30.11,North,352,0.0,0.0,83,0.00,,,0.00,Wunderground v.1.15,2013-03-17 10:50:00,
2013-03-17 07:00:00,62.7,57.5,30.11,North,352,0.0,0.0,83,0.00,,,0.00,Wunderground v.1.15,2013-03-17 11:00:00,
2013-03-17 07:10:00,62.7,57.5,30.12,North,352,0.0,0.0,83,0.00,,,0.00,Wunderground v.1.15,2013-03-17 11:10:00,
2013-03-17 07:20:00,62.3,57.1,30.12,NW,319,0.0,0.0,83,0.00,,,0.00,Wunderground v.1.15,2013-03-17 11:20:00,
2013-03-17 07:30:00,62.1,57.2,30.12,NW,320,0.0,0.0,84,0.00,,,0.00,Wunderground v.1.15,2013-03-17 11:30:00,
2013-03-17 07:40:00,61.7,56.8,30.11,NW,320,0.0,0.0,84,0.00,,,0.00,Wunderground v.1.15,2013-03-17 11:40:00,
2013-03-17 07:50:00,61.8,57.2,30.12,NNW,330,0.0,5.0,85,0.00,,,0.00,Wunderground v.1.15,2013-03-17 11:50:00,
2013-03-17 08:00:00,62.3,57.7,30.13,NW,309,1.0,1.0,85,0.00,,,0.00,Wunderground v.1.15,2013-03-17 12:00:00,
2013-03-17 08:10:00,62.8,57.9,30.14,SW,235,0.0,0.0,84,0.00,,,0.00,Wunderground v.1.15,2013-03-17 12:10:00,
2013-03-17 08:20:00,63.2,58.3,30.14,West,260,0.0,0.0,84,0.00,,,0.00,Wunderground v.1.15,2013-03-17 12:20:00,
2013-03-17 08:30:00,63.7,58.8,30.15,NW,326,0.0,1.0,84,0.00,,,0.00,Wunderground v.1.15,2013-03-17 12:30:00,
2013-03-17 08:40:00,64.4,59.1,30.15,NNW,345,1.0,1.0,83,0.00,,,0.00,Wunderground v.1.15,2013-03-17 12:40:00,
2013-03-17 08:50:00,65.1,59.5,30.15,WNW,288,1.0,1.0,82,0.00,,,0.00,Wunderground v.1.15,2013-03-17 12:50:00,
2013-03-17 09:00:00,66.0,59.7,30.15,WNW,291,0.0,0.0,80,0.00,,,0.00,Wunderground v.1.15,2013-03-17 13:00:00,
2013-03-17 09:10:00,68.4,59.8,30.15,ESE,108,1.0,2.0,74,0.00,,,0.00,Wunderground v.1.15,2013-03-17 13:10:00,
2013-03-17 09:20:00,69.5,59.7,30.16,ESE,117,3.0,3.0,71,0.00,,,0.00,Wunderground v.1.15,2013-03-17 13:20:00,
2013-03-17 09:30:00,70.5,58.6,30.16,SE,127,3.0,3.0,66,0.00,,,0.00,Wunderground v.1.15,2013-03-17 13:30:00,
2013-03-17 09:40:00,70.9,58.5,30.16,South,176,2.0,3.0,65,0.00,,,0.00,Wunderground v.1.15,2013-03-17 13:40:00,
2013-03-17 09:50:00,71.1,58.3,30.17,SSE,150,4.0,4.0,64,0.00,,,0.00,Wunderground v.1.15,2013-03-17 13:50:00,
2013-03-17 10:00:00,72.0,59.2,30.17,SSE,149,4.0,4.0,64,0.00,,,0.00,Wunderground v.1.15,2013-03-17 14:00:00,
2013-03-17 10:10:00,73.1,57.9,30.16,SE,142,5.0,5.0,59,0.00,,,0.00,Wunderground v.1.15,2013-03-17 14:10:00,
2013-03-17 10:20:00,72.5,57.4,30.16,South,178,5.0,5.0,59,0.00,,,0.00,Wunderground v.1.15,2013-03-17 14:20:00,
2013-03-17 10:30:00,72.2,58.5,30.16,ESE,108,5.0,6.0,62,0.00,,,0.00,Wunderground v.1.15,2013-03-17 14:30:00,
2013-03-17 10:40:00,73.4,58.2,30.16,NW,317,4.0,4.0,59,0.00,,,0.00,Wunderground v.1.15,2013-03-17 14:40:00,
2013-03-17 10:50:00,73.5,58.8,30.16,ESE,113,5.0,5.0,60,0.00,,,0.00,Wunderground v.1.15,2013-03-17 14:50:00,
2013-03-17 11:00:00,73.0,60.5,30.16,SE,127,5.0,5.0,65,0.00,,,0.00,Wunderground v.1.15,2013-03-17 15:00:00,
2013-03-17 11:10:00,72.2,61.0,30.16,East,94,5.0,7.0,68,0.00,,,0.00,Wunderground v.1.15,2013-03-17 15:10:00,
2013-03-17 11:20:00,72.4,60.8,30.16,SE,136,5.0,5.0,67,0.00,,,0.00,Wunderground v.1.15,2013-03-17 15:20:00,
2013-03-17 11:30:00,72.7,61.1,30.15,SE,134,5.0,8.0,67,0.00,,,0.00,Wunderground v.1.15,2013-03-17 15:30:00,
2013-03-17 11:40:00,72.7,60.7,30.15,SE,130,7.0,12.0,66,0.00,,,0.00,Wunderground v.1.15,2013-03-17 15:40:00,
2013-03-17 11:50:00,72.8,60.3,30.16,East,99,8.0,9.0,65,0.00,,,0.00,Wunderground v.1.15,2013-03-17 15:50:00,
2013-03-17 12:00:00,73.5,60.6,30.15,ESE,108,7.0,7.0,64,0.00,,,0.00,Wunderground v.1.15,2013-03-17 16:00:00,
2013-03-17 12:10:00,74.2,60.3,30.16,ESE,117,7.0,8.0,62,0.00,,,0.00,Wunderground v.1.15,2013-03-17 16:10:00,
2013-03-17 12:20:00,73.7,60.3,30.16,ESE,113,6.0,6.0,63,0.00,,,0.00,Wunderground v.1.15,2013-03-17 16:20:00,
2013-03-17 12:30:00,73.0,59.7,30.16,ESE,110,7.0,7.0,63,0.00,,,0.00,Wunderground v.1.15,2013-03-17 16:30:00,
2013-03-17 12:40:00,73.6,60.2,30.15,SSE,150,6.0,6.0,63,0.00,,,0.00,Wunderground v.1.15,2013-03-17 16:40:00,
2013-03-17 12:50:00,74.5,60.2,30.15,NE,41,6.0,6.0,61,0.00,,,0.00,Wunderground v.1.15,2013-03-17 16:50:00,
2013-03-17 13:00:00,73.7,59.9,30.15,SE,143,7.0,9.0,62,0.00,,,0.00,Wunderground v.1.15,2013-03-17 17:00:00,
2013-03-17 13:10:00,74.0,59.7,30.14,ESE,113,6.0,10.0,61,0.00,,,0.00,Wunderground v.1.15,2013-03-17 17:10:00,
2013-03-17 13:20:00,74.0,59.7,30.14,ESE,110,7.0,7.0,61,0.00,,,0.00,Wunderground v.1.15,2013-03-17 17:20:00,
2013-03-17 13:30:00,73.9,59.6,30.14,SE,124,7.0,11.0,61,0.00,,,0.00,Wunderground v.1.15,2013-03-17 17:30:00,
2013-03-17 13:40:00,73.7,59.4,30.14,SE,127,6.0,6.0,61,0.00,,,0.00,Wunderground v.1.15,2013-03-17 17:40:00,
2013-03-17 13:50:00,73.8,60.0,30.13,SSE,168,5.0,5.0,62,0.00,,,0.00,Wunderground v.1.15,2013-03-17 17:50:00,
2013-03-17 14:00:00,74.4,59.1,30.13,SSW,211,6.0,10.0,59,0.00,,,0.00,Wunderground v.1.15,2013-03-17 18:00:00,
2013-03-17 14:10:00,74.4,59.6,30.13,SSE,153,6.0,6.0,60,0.00,,,0.00,Wunderground v.1.15,2013-03-17 18:10:00,
2013-03-17 14:20:00,74.2,60.3,30.12,ESE,110,6.0,6.0,62,0.00,,,0.00,Wunderground v.1.15,2013-03-17 18:20:00,
2013-03-17 14:30:00,73.5,59.7,30.12,SE,130,6.0,6.0,62,0.00,,,0.00,Wunderground v.1.15,2013-03-17 18:30:00,
2013-03-17 14:40:00,73.5,60.1,30.11,SSW,204,5.0,5.0,63,0.00,,,0.00,Wunderground v.1.15,2013-03-17 18:40:00,
2013-03-17 14:50:00,74.0,60.2,30.10,SE,132,7.0,7.0,62,0.00,,,0.00,Wunderground v.1.15,2013-03-17 18:50:00,
2013-03-17 15:00:00,74.0,60.6,30.10,South,179,8.0,8.0,63,0.00,,,0.00,Wunderground v.1.15,2013-03-17 19:00:00,
2013-03-17 15:10:00,73.9,60.1,30.09,SE,142,7.0,10.0,62,0.00,,,0.00,Wunderground v.1.15,2013-03-17 19:10:00,
2013-03-17 15:20:00,73.4,60.5,30.08,SSW,200,8.0,12.0,64,0.00,,,0.00,Wunderground v.1.15,2013-03-17 19:20:00,
2013-03-17 15:30:00,73.8,60.4,30.08,South,191,6.0,6.0,63,0.00,,,0.00,Wunderground v.1.15,2013-03-17 19:30:00,
2013-03-17 15:40:00,74.6,60.7,30.07,NNE,12,6.0,6.0,62,0.00,,,0.00,Wunderground v.1.15,2013-03-17 19:40:00,
2013-03-17 15:50:00,74.4,60.1,30.07,South,181,6.0,6.0,61,0.00,,,0.00,Wunderground v.1.15,2013-03-17 19:50:00,
2013-03-17 16:00:00,74.4,59.6,30.08,SSE,160,5.0,5.0,60,0.00,,,0.00,Wunderground v.1.15,2013-03-17 20:00:00,
2013-03-17 16:10:00,74.3,60.4,30.08,SSE,165,6.0,10.0,62,0.00,,,0.00,Wunderground v.1.15,2013-03-17 20:10:00,
2013-03-17 16:20:00,74.3,60.4,30.08,ESE,120,5.0,7.0,62,0.00,,,0.00,Wunderground v.1.15,2013-03-17 20:20:00,
2013-03-17 16:30:00,73.9,60.1,30.07,South,174,5.0,7.0,62,0.00,,,0.00,Wunderground v.1.15,2013-03-17 20:30:00,
2013-03-17 16:40:00,74.4,59.1,30.07,ESE,122,6.0,6.0,59,0.00,,,0.00,Wunderground v.1.15,2013-03-17 20:40:00,
2013-03-17 16:50:00,74.2,59.9,30.06,SW,236,5.0,5.0,61,0.00,,,0.00,Wunderground v.1.15,2013-03-17 20:50:00,
2013-03-17 17:00:00,73.9,59.1,30.07,North,352,6.0,6.0,60,0.00,,,0.00,Wunderground v.1.15,2013-03-17 21:00:00,
2013-03-17 17:10:00,73.7,58.9,30.07,SSE,165,5.0,7.0,60,0.00,,,0.00,Wunderground v.1.15,2013-03-17 21:10:00,
2013-03-17 17:20:00,74.0,59.2,30.07,SSE,165,5.0,7.0,60,0.00,,,0.00,Wunderground v.1.15,2013-03-17 21:20:00,
2013-03-17 17:30:00,73.2,58.9,30.07,SW,216,7.0,7.0,61,0.00,,,0.00,Wunderground v.1.15,2013-03-17 21:30:00,
2013-03-17 17:40:00,73.0,59.2,30.07,South,190,6.0,6.0,62,0.00,,,0.00,Wunderground v.1.15,2013-03-17 21:40:00,
2013-03-17 17:50:00,73.0,59.7,30.07,ESE,117,5.0,5.0,63,0.00,,,0.00,Wunderground v.1.15,2013-03-17 21:50:00,
2013-03-17 18:00:00,73.0,60.1,30.08,SSW,205,5.0,5.0,64,0.00,,,0.00,Wunderground v.1.15,2013-03-17 22:00:00,
2013-03-17 18:10:00,74.0,60.6,30.08,SE,128,4.0,8.0,63,0.00,,,0.00,Wunderground v.1.15,2013-03-17 22:10:00,
2013-03-17 18:20:00,73.9,60.5,30.08,SW,229,4.0,6.0,63,0.00,,,0.00,Wunderground v.1.15,2013-03-17 22:20:00,
2013-03-17 18:30:00,73.2,60.3,30.08,SSW,201,6.0,9.0,64,0.00,,,0.00,Wunderground v.1.15,2013-03-17 22:30:00,
2013-03-17 18:40:00,72.7,60.3,30.07,SW,222,6.0,6.0,65,0.00,,,0.00,Wunderground v.1.15,2013-03-17 22:40:00,
2013-03-17 18:50:00,72.4,60.0,30.07,ESE,113,6.0,7.0,65,0.00,,,0.00,Wunderground v.1.15,2013-03-17 22:50:00,
2013-03-17 19:00:00,72.3,59.9,30.07,SSE,153,5.0,5.0,65,0.00,,,0.00,Wunderground v.1.15,2013-03-17 23:00:00,
2013-03-17 19:10:00,72.0,59.6,30.06,South,176,4.0,6.0,65,0.00,,,0.00,Wunderground v.1.15,2013-03-17 23:10:00,
2013-03-17 19:20:00,71.8,59.4,30.06,SSW,200,4.0,4.0,65,0.00,,,0.00,Wunderground v.1.15,2013-03-17 23:20:00,
2013-03-17 19:30:00,71.5,58.7,30.06,SSE,160,5.0,5.0,64,0.00,,,0.00,Wunderground v.1.15,2013-03-17 23:30:00,
2013-03-17 19:40:00,71.4,59.0,30.05,SSE,148,4.0,5.0,65,0.00,,,0.00,Wunderground v.1.15,2013-03-17 23:40:00,
2013-03-17 19:50:00,71.3,59.4,30.05,SE,132,4.0,4.0,66,0.00,,,0.00,Wunderground v.1.15,2013-03-17 23:50:00,
2013-03-17 20:00:00,71.4,60.3,30.06,ESE,108,4.0,4.0,68,0.00,,,0.00,Wunderground v.1.15,2013-03-18 00:00:00,
2013-03-17 20:10:00,71.5,60.8,30.06,SSE,152,3.0,3.0,69,0.00,,,0.00,Wunderground v.1.15,2013-03-18 00:10:00,
2013-03-17 20:20:00,71.6,60.9,30.06,SE,144,2.0,3.0,69,0.00,,,0.00,Wunderground v.1.15,2013-03-18 00:20:00,
2013-03-17 20:30:00,71.5,60.4,30.07,SSW,195,3.0,3.0,68,0.00,,,0.00,Wunderground v.1.15,2013-03-18 00:30:00,
2013-03-17 20:40:00,71.4,60.3,30.07,SSW,193,3.0,3.0,68,0.00,,,0.00,Wunderground v.1.15,2013-03-18 00:40:00,
2013-03-17 20:50:00,71.5,60.4,30.07,WSW,238,4.0,4.0,68,0.00,,,0.00,Wunderground v.1.15,2013-03-18 00:50:00,
2013-03-17 21:00:00,71.7,61.0,30.07,SE,129,4.0,4.0,69,0.00,,,0.00,Wunderground v.1.15,2013-03-18 01:00:00,
2013-03-17 21:10:00,71.7,61.0,30.08,ESE,121,5.0,6.0,69,0.00,,,0.00,Wunderground v.1.15,2013-03-18 01:10:00,
2013-03-17 21:20:00,71.8,62.3,30.07,ESE,110,5.0,5.0,72,0.00,,,0.00,Wunderground v.1.15,2013-03-18 01:20:00,
2013-03-17 21:30:00,71.5,62.0,30.07,ESE,103,4.0,4.0,72,0.00,,,0.00,Wunderground v.1.15,2013-03-18 01:30:00,
2013-03-17 21:40:00,71.3,61.8,30.07,ESE,106,5.0,5.0,72,0.00,,,0.00,Wunderground v.1.15,2013-03-18 01:40:00,
2013-03-17 21:50:00,71.1,61.6,30.08,ESE,116,3.0,3.0,72,0.00,,,0.00,Wunderground v.1.15,2013-03-18 01:50:00,
2013-03-17 22:00:00,71.1,62.0,30.08,East,86,3.0,7.0,73,0.00,,,0.00,Wunderground v.1.15,2013-03-18 02:00:00,
2013-03-17 22:10:00,71.1,61.6,30.09,ESE,103,4.0,4.0,72,0.00,,,0.00,Wunderground v.1.15,2013-03-18 02:10:00,
2013-03-17 22:20:00,70.9,61.8,30.09,East,86,3.0,3.0,73,0.00,,,0.00,Wunderground v.1.15,2013-03-18 02:20:00,
2013-03-17 22:30:00,70.8,61.7,30.09,SSE,167,3.0,3.0,73,0.00,,,0.00,Wunderground v.1.15,2013-03-18 02:30:00,
2013-03-17 22:40:00,70.7,61.6,30.09,ESE,115,2.0,2.0,73,0.00,,,0.00,Wunderground v.1.15,2013-03-18 02:40:00,
2013-03-17 22:50:00,70.7,61.6,30.10,SE,143,3.0,3.0,73,0.00,,,0.00,Wunderground v.1.15,2013-03-18 02:50:00,
2013-03-17 23:00:00,70.8,61.3,30.10,SE,124,4.0,4.0,72,0.00,,,0.00,Wunderground v.1.15,2013-03-18 03:00:00,
2013-03-17 23:10:00,70.7,61.6,30.10,ESE,103,3.0,3.0,73,0.00,,,0.00,Wunderground v.1.15,2013-03-18 03:10:00,
2013-03-17 23:20:00,70.9,61.8,30.11,SE,127,3.0,6.0,73,0.00,,,0.00,Wunderground v.1.15,2013-03-18 03:20:00,
2013-03-17 23:30:00,70.7,61.6,30.10,SSE,153,2.0,4.0,73,0.00,,,0.00,Wunderground v.1.15,2013-03-18 03:30:00,
2013-03-17 23:40:00,70.7,61.6,30.10,East,100,3.0,3.0,73,0.00,,,0.00,Wunderground v.1.15,2013-03-18 03:40:00,
2013-03-17 23:50:00,70.7,61.6,30.10,ESE,115,3.0,3.0,73,0.00,,,0.00,Wunderground v.1.15,2013-03-18 03:50:00,